sensor_id;sensor_type;location;lat;lon;timestamp;pressure;altitude;pressure_sealevel;temperature;humidity
9077;BME280;4574;51.072;17.174;2022-11-13T00:00:33;101773.19;;;9.78;100.00
9077;BME280;4574;51.072;17.174;2022-11-13T00:03:02;101774.22;;;9.75;100.00
9077;BME280;4574;51.072;17.174;2022-11-13T00:05:30;101769.47;;;9.80;100.00
9077;BME280;4574;51.072;17.174;2022-11-13T00:07:59;101762.28;;;9.82;100.00
9077;BME280;4574;51.072;17.174;2022-11-13T00:10:27;101765.69;;;9.84;100.00
9077;BME280;4574;51.072;17.174;2022-11-13T00:12:57;101767.56;;;9.82;100.00
9077;BME280;4574;51.072;17.174;2022-11-13T00:15:26;101758.16;;;9.78;100.00
9077;BME280;4574;51.072;17.174;2022-11-13T00:17:54;101768.84;;;9.77;100.00
9077;BME280;4574;51.072;17.174;2022-11-13T00:20:23;101769.06;;;9.74;100.00
9077;BME280;4574;51.072;17.174;2022-11-13T00:22:51;101763.78;;;9.74;100.00
9077;BME280;4574;51.072;17.174;2022-11-13T00:25:21;101774.34;;;9.74;100.00
9077;BME280;4574;51.072;17.174;2022-11-13T00:27:49;101760.59;;;9.69;100.00
9077;BME280;4574;51.072;17.174;2022-11-13T00:30:20;101767.66;;;9.68;100.00
9077;BME280;4574;51.072;17.174;2022-11-13T00:32:49;101784.47;;;9.67;100.00
9077;BME280;4574;51.072;17.174;2022-11-13T00:35:18;101776.75;;;9.64;100.00
9077;BME280;4574;51.072;17.174;2022-11-13T00:37:47;101763.94;;;9.58;100.00
9077;BME280;4574;51.072;17.174;2022-11-13T00:40:16;101774.84;;;9.66;100.00
9077;BME280;4574;51.072;17.174;2022-11-13T00:42:44;101764.91;;;9.57;100.00
9077;BME280;4574;51.072;17.174;2022-11-13T00:45:14;101775.91;;;9.64;100.00
9077;BME280;4574;51.072;17.174;2022-11-13T00:47:44;101779.41;;;9.64;100.00
9077;BME280;4574;51.072;17.174;2022-11-13T00:50:12;101764.91;;;9.57;100.00
9077;BME280;4574;51.072;17.174;2022-11-13T00:52:42;101766.50;;;9.60;100.00
9077;BME280;4574;51.072;17.174;2022-11-13T00:55:10;101753.69;;;9.54;100.00
9077;BME280;4574;51.072;17.174;2022-11-13T00:57:39;101760.75;;;9.53;100.00
9077;BME280;4574;51.072;17.174;2022-11-13T01:00:09;101756.09;;;9.44;100.00
9077;BME280;4574;51.072;17.174;2022-11-13T01:02:37;101748.56;;;9.38;100.00
9077;BME280;4574;51.072;17.174;2022-11-13T01:05:08;101738.94;;;9.37;100.00
9077;BME280;4574;51.072;17.174;2022-11-13T01:07:37;101753.13;;;9.36;100.00
9077;BME280;4574;51.072;17.174;2022-11-13T01:10:07;101741.44;;;9.53;100.00
9077;BME280;4574;51.072;17.174;2022-11-13T01:12:36;101741.31;;;9.54;100.00
9077;BME280;4574;51.072;17.174;2022-11-13T01:15:06;101739.63;;;9.53;100.00
9077;BME280;4574;51.072;17.174;2022-11-13T01:17:35;101743.53;;;9.48;100.00
9077;BME280;4574;51.072;17.174;2022-11-13T01:20:05;101749.56;;;9.50;100.00
9077;BME280;4574;51.072;17.174;2022-11-13T01:22:36;101729.25;;;9.50;100.00
9077;BME280;4574;51.072;17.174;2022-11-13T01:25:05;101741.09;;;9.45;100.00
9077;BME280;4574;51.072;17.174;2022-11-13T01:27:34;101727.75;;;9.46;100.00
9077;BME280;4574;51.072;17.174;2022-11-13T01:30:04;101721.44;;;9.49;100.00
9077;BME280;4574;51.072;17.174;2022-11-13T01:32:33;101727.56;;;9.49;100.00
9077;BME280;4574;51.072;17.174;2022-11-13T01:35:02;101717.31;;;9.45;100.00
9077;BME280;4574;51.072;17.174;2022-11-13T01:37:30;101721.97;;;9.54;100.00
9077;BME280;4574;51.072;17.174;2022-11-13T01:40:00;101716.78;;;9.52;100.00
9077;BME280;4574;51.072;17.174;2022-11-13T01:42:31;101717.59;;;9.40;100.00
9077;BME280;4574;51.072;17.174;2022-11-13T01:45:00;101712.53;;;9.37;100.00
9077;BME280;4574;51.072;17.174;2022-11-13T01:47:30;101719.50;;;9.38;100.00
9077;BME280;4574;51.072;17.174;2022-11-13T01:50:00;101709.88;;;9.37;100.00
9077;BME280;4574;51.072;17.174;2022-11-13T01:52:31;101708.19;;;9.36;100.00
9077;BME280;4574;51.072;17.174;2022-11-13T01:55:08;101709.66;;;9.40;100.00
9077;BME280;4574;51.072;17.174;2022-11-13T01:57:40;101702.69;;;9.39;100.00
9077;BME280;4574;51.072;17.174;2022-11-13T02:00:10;101696.47;;;9.40;100.00
9077;BME280;4574;51.072;17.174;2022-11-13T02:02:38;101700.50;;;9.46;100.00
9077;BME280;4574;51.072;17.174;2022-11-13T02:05:07;101697.31;;;9.41;100.00
9077;BME280;4574;51.072;17.174;2022-11-13T02:07:37;101694.75;;;9.39;100.00
9077;BME280;4574;51.072;17.174;2022-11-13T02:10:08;101690.66;;;9.48;100.00
9077;BME280;4574;51.072;17.174;2022-11-13T02:12:42;101685.88;;;9.40;100.00
9077;BME280;4574;51.072;17.174;2022-11-13T02:15:12;101675.09;;;9.43;100.00
9077;BME280;4574;51.072;17.174;2022-11-13T02:17:44;101669.09;;;9.66;100.00
9077;BME280;4574;51.072;17.174;2022-11-13T02:22:48;101687.81;;;9.76;100.00
9077;BME280;4574;51.072;17.174;2022-11-13T02:25:21;101688.34;;;9.68;100.00
9077;BME280;4574;51.072;17.174;2022-11-13T02:27:52;101679.34;;;9.58;100.00
9077;BME280;4574;51.072;17.174;2022-11-13T02:30:24;101683.56;;;9.48;100.00
9077;BME280;4574;51.072;17.174;2022-11-13T02:32:54;101685.25;;;9.49;100.00
9077;BME280;4574;51.072;17.174;2022-11-13T02:35:26;101675.97;;;9.44;100.00
9077;BME280;4574;51.072;17.174;2022-11-13T02:37:57;101676.06;;;9.42;100.00
9077;BME280;4574;51.072;17.174;2022-11-13T02:40:27;101667.38;;;9.40;100.00
9077;BME280;4574;51.072;17.174;2022-11-13T02:42:56;101667.16;;;9.31;100.00
9077;BME280;4574;51.072;17.174;2022-11-13T02:45:25;101667.16;;;9.31;100.00
9077;BME280;4574;51.072;17.174;2022-11-13T02:47:54;101654.06;;;9.29;100.00
9077;BME280;4574;51.072;17.174;2022-11-13T02:50:23;101656.78;;;9.28;100.00
9077;BME280;4574;51.072;17.174;2022-11-13T02:52:51;101657.44;;;9.31;100.00
9077;BME280;4574;51.072;17.174;2022-11-13T02:55:20;101654.59;;;9.34;100.00
9077;BME280;4574;51.072;17.174;2022-11-13T02:57:50;101651.00;;;9.35;100.00
9077;BME280;4574;51.072;17.174;2022-11-13T03:00:19;101649.50;;;9.31;100.00
9077;BME280;4574;51.072;17.174;2022-11-13T03:02:48;101648.66;;;9.31;100.00
9077;BME280;4574;51.072;17.174;2022-11-13T03:05:16;101640.84;;;9.29;100.00
9077;BME280;4574;51.072;17.174;2022-11-13T03:07:45;101646.13;;;9.29;100.00
9077;BME280;4574;51.072;17.174;2022-11-13T03:10:14;101644.44;;;9.28;100.00
9077;BME280;4574;51.072;17.174;2022-11-13T03:12:42;101643.69;;;9.27;100.00
9077;BME280;4574;51.072;17.174;2022-11-13T03:15:13;101631.09;;;9.30;100.00
9077;BME280;4574;51.072;17.174;2022-11-13T03:17:42;101622.34;;;9.29;100.00
9077;BME280;4574;51.072;17.174;2022-11-13T03:20:10;101622.22;;;9.31;100.00
9077;BME280;4574;51.072;17.174;2022-11-13T03:22:39;101629.94;;;9.34;100.00
9077;BME280;4574;51.072;17.174;2022-11-13T03:25:07;101630.16;;;9.31;100.00
9077;BME280;4574;51.072;17.174;2022-11-13T03:27:37;101624.66;;;9.34;100.00
9077;BME280;4574;51.072;17.174;2022-11-13T03:30:07;101617.34;;;9.25;100.00
9077;BME280;4574;51.072;17.174;2022-11-13T03:32:39;101631.75;;;9.33;100.00
9077;BME280;4574;51.072;17.174;2022-11-13T03:35:07;101617.81;;;9.31;100.00
9077;BME280;4574;51.072;17.174;2022-11-13T03:37:36;101618.53;;;9.33;100.00
9077;BME280;4574;51.072;17.174;2022-11-13T03:40:06;101615.47;;;9.39;100.00
9077;BME280;4574;51.072;17.174;2022-11-13T03:42:36;101615.47;;;9.39;100.00
9077;BME280;4574;51.072;17.174;2022-11-13T03:45:05;101624.78;;;9.45;100.00
9077;BME280;4574;51.072;17.174;2022-11-13T03:47:35;101602.78;;;9.32;100.00
9077;BME280;4574;51.072;17.174;2022-11-13T03:50:06;101608.06;;;9.32;100.00
9077;BME280;4574;51.072;17.174;2022-11-13T03:52:34;101605.31;;;9.33;100.00
9077;BME280;4574;51.072;17.174;2022-11-13T03:55:08;101615.25;;;9.42;100.00
9077;BME280;4574;51.072;17.174;2022-11-13T03:57:39;101616.22;;;9.41;100.00
9077;BME280;4574;51.072;17.174;2022-11-13T04:00:08;101621.84;;;9.37;100.00
9077;BME280;4574;51.072;17.174;2022-11-13T04:02:37;101613.03;;;9.36;100.00
9077;BME280;4574;51.072;17.174;2022-11-13T04:05:08;101608.72;;;9.35;100.00
9077;BME280;4574;51.072;17.174;2022-11-13T04:07:37;101612.50;;;9.31;100.00
9077;BME280;4574;51.072;17.174;2022-11-13T04:10:07;101623.28;;;9.28;100.00
9077;BME280;4574;51.072;17.174;2022-11-13T04:12:35;101617.25;;;9.27;100.00
9077;BME280;4574;51.072;17.174;2022-11-13T04:15:04;101620.66;;;9.28;100.00
9077;BME280;4574;51.072;17.174;2022-11-13T04:17:33;101615.56;;;9.26;100.00
9077;BME280;4574;51.072;17.174;2022-11-13T04:20:02;101620.94;;;9.24;100.00
9077;BME280;4574;51.072;17.174;2022-11-13T04:22:32;101634.16;;;9.24;100.00
9077;BME280;4574;51.072;17.174;2022-11-13T04:25:00;101622.84;;;9.22;100.00
9077;BME280;4574;51.072;17.174;2022-11-13T04:27:29;101623.72;;;9.23;100.00
9077;BME280;4574;51.072;17.174;2022-11-13T04:29:58;101624.88;;;9.19;100.00
9077;BME280;4574;51.072;17.174;2022-11-13T04:32:26;101623.78;;;9.21;100.00
9077;BME280;4574;51.072;17.174;2022-11-13T04:34:56;101624.75;;;9.20;100.00
9077;BME280;4574;51.072;17.174;2022-11-13T04:37:24;101633.63;;;9.19;100.00
9077;BME280;4574;51.072;17.174;2022-11-13T04:39:54;101642.91;;;9.12;100.00
9077;BME280;4574;51.072;17.174;2022-11-13T04:42:23;101619.25;;;9.11;100.00
9077;BME280;4574;51.072;17.174;2022-11-13T04:45:09;101620.00;;;9.13;100.00
9077;BME280;4574;51.072;17.174;2022-11-13T04:47:38;101615.22;;;9.05;100.00
9077;BME280;4574;51.072;17.174;2022-11-13T04:50:08;101622.63;;;9.13;100.00
9077;BME280;4574;51.072;17.174;2022-11-13T04:52:36;101630.56;;;9.13;100.00
9077;BME280;4574;51.072;17.174;2022-11-13T04:55:08;101627.72;;;9.16;100.00
9077;BME280;4574;51.072;17.174;2022-11-13T04:57:38;101629.41;;;9.17;100.00
9077;BME280;4574;51.072;17.174;2022-11-13T05:00:08;101635.72;;;9.14;100.00
9077;BME280;4574;51.072;17.174;2022-11-13T05:02:36;101620.94;;;9.12;100.00
9077;BME280;4574;51.072;17.174;2022-11-13T05:05:05;101632.47;;;9.11;100.00
9077;BME280;4574;51.072;17.174;2022-11-13T05:07:35;101623.88;;;9.07;100.00
9077;BME280;4574;51.072;17.174;2022-11-13T05:10:04;101638.69;;;9.10;100.00
9077;BME280;4574;51.072;17.174;2022-11-13T05:12:35;101628.13;;;9.10;100.00
9077;BME280;4574;51.072;17.174;2022-11-13T05:15:04;101637.41;;;9.03;100.00
9077;BME280;4574;51.072;17.174;2022-11-13T05:17:33;101632.88;;;9.05;100.00
9077;BME280;4574;51.072;17.174;2022-11-13T05:20:02;101626.66;;;9.06;100.00
9077;BME280;4574;51.072;17.174;2022-11-13T05:22:31;101635.31;;;9.08;100.00
9077;BME280;4574;51.072;17.174;2022-11-13T05:25:02;101630.97;;;9.07;100.00
9077;BME280;4574;51.072;17.174;2022-11-13T05:27:36;101637.22;;;9.06;100.00
9077;BME280;4574;51.072;17.174;2022-11-13T05:30:06;101630.53;;;9.00;100.00
9077;BME280;4574;51.072;17.174;2022-11-13T05:32:35;101634.38;;;9.09;100.00
9077;BME280;4574;51.072;17.174;2022-11-13T05:35:04;101640.38;;;9.11;100.00
9077;BME280;4574;51.072;17.174;2022-11-13T05:37:33;101612.25;;;8.97;100.00
9077;BME280;4574;51.072;17.174;2022-11-13T05:40:02;101635.31;;;9.08;100.00
9077;BME280;4574;51.072;17.174;2022-11-13T05:42:31;101625.69;;;9.07;100.00
9077;BME280;4574;51.072;17.174;2022-11-13T05:45:02;101620.41;;;9.07;100.00
9077;BME280;4574;51.072;17.174;2022-11-13T05:47:31;101612.69;;;9.04;100.00
9077;BME280;4574;51.072;17.174;2022-11-13T05:50:00;101628.75;;;9.01;100.00
9077;BME280;4574;51.072;17.174;2022-11-13T05:52:29;101626.84;;;9.03;100.00
9077;BME280;4574;51.072;17.174;2022-11-13T05:54:58;101626.84;;;9.03;100.00
9077;BME280;4574;51.072;17.174;2022-11-13T05:57:27;101629.50;;;9.03;100.00
9077;BME280;4574;51.072;17.174;2022-11-13T05:59:56;101626.09;;;9.01;100.00
9077;BME280;4574;51.072;17.174;2022-11-13T06:02:26;101632.53;;;8.97;100.00
9077;BME280;4574;51.072;17.174;2022-11-13T06:04:55;101624.81;;;8.94;100.00
9077;BME280;4574;51.072;17.174;2022-11-13T06:07:23;101622.38;;;8.91;100.00
9077;BME280;4574;51.072;17.174;2022-11-13T06:09:52;101616.56;;;8.86;100.00
9077;BME280;4574;51.072;17.174;2022-11-13T06:12:20;101617.50;;;8.85;100.00
9077;BME280;4574;51.072;17.174;2022-11-13T06:14:49;101614.13;;;8.83;100.00
9077;BME280;4574;51.072;17.174;2022-11-13T06:17:18;101605.47;;;8.81;100.00
9077;BME280;4574;51.072;17.174;2022-11-13T06:19:48;101609.25;;;8.77;100.00
9077;BME280;4574;51.072;17.174;2022-11-13T06:22:17;101615.56;;;8.74;100.00
9077;BME280;4574;51.072;17.174;2022-11-13T06:24:45;101614.00;;;8.72;100.00
9077;BME280;4574;51.072;17.174;2022-11-13T06:27:14;101596.00;;;8.64;100.00
9077;BME280;4574;51.072;17.174;2022-11-13T06:29:42;101617.38;;;8.74;100.00
9077;BME280;4574;51.072;17.174;2022-11-13T06:32:12;101613.25;;;8.70;100.00
9077;BME280;4574;51.072;17.174;2022-11-13T06:34:41;101620.44;;;8.68;100.00
9077;BME280;4574;51.072;17.174;2022-11-13T06:37:11;101617.97;;;8.65;100.00
9077;BME280;4574;51.072;17.174;2022-11-13T06:39:40;101617.13;;;8.64;100.00
9077;BME280;4574;51.072;17.174;2022-11-13T06:42:09;101608.13;;;8.54;100.00
9077;BME280;4574;51.072;17.174;2022-11-13T06:44:38;101607.50;;;8.51;100.00
9077;BME280;4574;51.072;17.174;2022-11-13T06:47:06;101607.28;;;8.54;100.00
9077;BME280;4574;51.072;17.174;2022-11-13T06:49:35;101606.53;;;8.52;100.00
9077;BME280;4574;51.072;17.174;2022-11-13T06:52:04;101607.28;;;8.54;100.00
9077;BME280;4574;51.072;17.174;2022-11-13T06:54:34;101609.94;;;8.54;100.00
9077;BME280;4574;51.072;17.174;2022-11-13T06:57:03;101607.84;;;8.45;100.00
9077;BME280;4574;51.072;17.174;2022-11-13T06:59:32;101604.47;;;8.43;100.00
9077;BME280;4574;51.072;17.174;2022-11-13T07:02:00;101601.81;;;8.43;100.00
9077;BME280;4574;51.072;17.174;2022-11-13T07:04:29;101602.50;;;8.46;100.00
9077;BME280;4574;51.072;17.174;2022-11-13T07:06:58;101602.38;;;8.48;100.00
9077;BME280;4574;51.072;17.174;2022-11-13T07:09:27;101603.25;;;8.48;100.00
9077;BME280;4574;51.072;17.174;2022-11-13T07:11:57;101597.84;;;8.50;100.00
9077;BME280;4574;51.072;17.174;2022-11-13T07:14:26;101592.03;;;8.45;100.00
9077;BME280;4574;51.072;17.174;2022-11-13T07:16:55;101593.16;;;8.55;100.00
9077;BME280;4574;51.072;17.174;2022-11-13T07:19:36;101588.59;;;8.57;100.00
9077;BME280;4574;51.072;17.174;2022-11-13T07:22:05;101591.03;;;8.60;100.00
9077;BME280;4574;51.072;17.174;2022-11-13T07:24:34;101592.63;;;8.62;100.00
9077;BME280;4574;51.072;17.174;2022-11-13T07:27:04;101593.78;;;8.58;100.00
9077;BME280;4574;51.072;17.174;2022-11-13T07:29:34;101591.03;;;8.60;100.00
9077;BME280;4574;51.072;17.174;2022-11-13T07:32:05;101589.16;;;8.62;100.00
9077;BME280;4574;51.072;17.174;2022-11-13T07:34:33;101588.19;;;8.63;100.00
9077;BME280;4574;51.072;17.174;2022-11-13T07:37:02;101590.84;;;8.63;100.00
9077;BME280;4574;51.072;17.174;2022-11-13T07:39:32;101588.84;;;8.66;100.00
9077;BME280;4574;51.072;17.174;2022-11-13T07:42:02;101569.19;;;8.58;100.00
9077;BME280;4574;51.072;17.174;2022-11-13T07:44:33;101583.47;;;8.68;100.00
9077;BME280;4574;51.072;17.174;2022-11-13T07:47:22;101586.84;;;8.70;100.00
9077;BME280;4574;51.072;17.174;2022-11-13T07:49:51;101577.13;;;8.70;100.00
9077;BME280;4574;51.072;17.174;2022-11-13T07:52:29;101564.59;;;8.74;100.00
9077;BME280;4574;51.072;17.174;2022-11-13T07:54:58;101582.13;;;8.75;100.00
9077;BME280;4574;51.072;17.174;2022-11-13T07:57:27;101570.47;;;8.77;100.00
9077;BME280;4574;51.072;17.174;2022-11-13T07:59:57;101576.63;;;8.78;100.00
9077;BME280;4574;51.072;17.174;2022-11-13T08:02:26;101577.38;;;8.80;100.00
9077;BME280;4574;51.072;17.174;2022-11-13T08:04:55;101573.78;;;8.81;100.00
9077;BME280;4574;51.072;17.174;2022-11-13T08:07:25;101577.78;;;8.86;100.00
9077;BME280;4574;51.072;17.174;2022-11-13T08:09:54;101571.88;;;8.83;100.00
9077;BME280;4574;51.072;17.174;2022-11-13T08:12:23;101578.53;;;8.88;100.00
9077;BME280;4574;51.072;17.174;2022-11-13T08:14:53;101581.81;;;8.92;100.00
9077;BME280;4574;51.072;17.174;2022-11-13T08:17:23;101576.44;;;8.93;100.00
9077;BME280;4574;51.072;17.174;2022-11-13T08:19:52;101580.56;;;8.97;100.00
9077;BME280;4574;51.072;17.174;2022-11-13T08:22:21;101593.66;;;8.99;100.00
9077;BME280;4574;51.072;17.174;2022-11-13T08:24:49;101583.84;;;9.01;100.00
9077;BME280;4574;51.072;17.174;2022-11-13T08:27:21;101581.63;;;8.95;100.00
9077;BME280;4574;51.072;17.174;2022-11-13T08:29:51;101578.13;;;8.94;100.00
9077;BME280;4574;51.072;17.174;2022-11-13T08:32:19;101587.53;;;8.98;100.00
9077;BME280;4574;51.072;17.174;2022-11-13T08:34:50;101585.22;;;8.94;100.00
9077;BME280;4574;51.072;17.174;2022-11-13T08:37:18;101574.19;;;8.87;100.00
9077;BME280;4574;51.072;17.174;2022-11-13T08:39:47;101583.31;;;8.96;100.00
9077;BME280;4574;51.072;17.174;2022-11-13T08:42:15;101590.06;;;9.00;100.00
9077;BME280;4574;51.072;17.174;2022-11-13T08:44:44;101589.88;;;9.03;100.00
9077;BME280;4574;51.072;17.174;2022-11-13T08:47:13;101574.44;;;8.97;100.00
9077;BME280;4574;51.072;17.174;2022-11-13T08:49:42;101582.91;;;9.02;100.00
9077;BME280;4574;51.072;17.174;2022-11-13T08:52:13;101585.94;;;9.08;100.00
9077;BME280;4574;51.072;17.174;2022-11-13T08:54:42;101580.56;;;8.97;100.00
9077;BME280;4574;51.072;17.174;2022-11-13T08:57:12;101587.31;;;9.01;100.00
9077;BME280;4574;51.072;17.174;2022-11-13T08:59:40;101577.16;;;8.95;100.00
9077;BME280;4574;51.072;17.174;2022-11-13T09:02:13;101592.31;;;9.06;100.00
9077;BME280;4574;51.072;17.174;2022-11-13T09:04:42;101591.56;;;9.04;100.00
9077;BME280;4574;51.072;17.174;2022-11-13T09:07:13;101583.41;;;8.94;100.00
9077;BME280;4574;51.072;17.174;2022-11-13T09:09:42;101593.47;;;9.02;100.00
9077;BME280;4574;51.072;17.174;2022-11-13T09:12:14;101593.47;;;9.02;100.00
9077;BME280;4574;51.072;17.174;2022-11-13T09:14:43;101596.19;;;9.00;100.00
9077;BME280;4574;51.072;17.174;2022-11-13T09:17:12;101573.38;;;8.87;100.00
9077;BME280;4574;51.072;17.174;2022-11-13T09:19:41;101600.22;;;9.06;100.00
9077;BME280;4574;51.072;17.174;2022-11-13T09:22:10;101593.25;;;9.05;100.00
9077;BME280;4574;51.072;17.174;2022-11-13T09:24:41;101595.91;;;9.05;100.00
9077;BME280;4574;51.072;17.174;2022-11-13T09:27:09;101602.97;;;9.04;100.00
9077;BME280;4574;51.072;17.174;2022-11-13T09:29:38;101592.41;;;9.04;100.00
9077;BME280;4574;51.072;17.174;2022-11-13T09:32:07;101600.44;;;9.03;100.00
9077;BME280;4574;51.072;17.174;2022-11-13T09:34:36;101597.06;;;9.01;100.00
9077;BME280;4574;51.072;17.174;2022-11-13T09:37:04;101591.31;;;8.94;100.00
9077;BME280;4574;51.072;17.174;2022-11-13T09:39:34;101595.84;;;8.92;100.00
9077;BME280;4574;51.072;17.174;2022-11-13T09:42:10;101601.59;;;8.99;100.00
9077;BME280;4574;51.072;17.174;2022-11-13T09:44:42;101596.81;;;8.91;100.00
9077;BME280;4574;51.072;17.174;2022-11-13T09:47:16;101591.84;;;8.87;100.00
9077;BME280;4574;51.072;17.174;2022-11-13T09:49:50;101589.63;;;8.93;100.00
9077;BME280;4574;51.072;17.174;2022-11-13T09:52:30;101567.84;;;8.77;100.00
9077;BME280;4574;51.072;17.174;2022-11-13T09:55:13;101583.94;;;8.87;100.00
9077;BME280;4574;51.072;17.174;2022-11-13T09:57:51;101590.28;;;8.97;100.00
9077;BME280;4574;51.072;17.174;2022-11-13T10:00:22;101593.66;;;8.99;100.00
9077;BME280;4574;51.072;17.174;2022-11-13T10:02:58;101595.44;;;8.98;100.00
9077;BME280;4574;51.072;17.174;2022-11-13T10:05:37;101597.34;;;8.84;100.00
9077;BME280;4574;51.072;17.174;2022-11-13T10:08:12;101595.97;;;8.91;100.00
9077;BME280;4574;51.072;17.174;2022-11-13T10:10:47;101592.38;;;8.92;100.00
9077;BME280;4574;51.072;17.174;2022-11-13T10:13:27;101590.28;;;8.97;100.00
9077;BME280;4574;51.072;17.174;2022-11-13T10:16:05;101597.13;;;8.99;100.00
9077;BME280;4574;51.072;17.174;2022-11-13T10:18:39;101590.06;;;9.00;100.00
9077;BME280;4574;51.072;17.174;2022-11-13T10:21:22;101589.53;;;8.95;100.00
9077;BME280;4574;51.072;17.174;2022-11-13T10:24:01;101587.84;;;8.94;100.00
9077;BME280;4574;51.072;17.174;2022-11-13T10:26:37;101584.66;;;8.89;100.00
9077;BME280;4574;51.072;17.174;2022-11-13T10:29:10;101583.72;;;8.90;100.00
9077;BME280;4574;51.072;17.174;2022-11-13T10:31:42;101582.03;;;8.89;100.00
9077;BME280;4574;51.072;17.174;2022-11-13T10:34:11;101579.72;;;8.97;100.00
9077;BME280;4574;51.072;17.174;2022-11-13T10:36:49;101573.91;;;8.92;100.00
9077;BME280;4574;51.072;17.174;2022-11-13T10:39:22;101570.00;;;8.85;100.00
9077;BME280;4574;51.072;17.174;2022-11-13T10:41:53;101572.09;;;8.80;100.00
9077;BME280;4574;51.072;17.174;2022-11-13T10:44:24;101549.69;;;8.73;100.00
9077;BME280;4574;51.072;17.174;2022-11-13T10:47:07;101545.03;;;8.76;100.00
9077;BME280;4574;51.072;17.174;2022-11-13T10:50:07;101547.78;;;8.75;100.00
9077;BME280;4574;51.072;17.174;2022-11-13T10:52:44;101527.50;;;8.63;100.00
9077;BME280;4574;51.072;17.174;2022-11-13T10:55:24;101561.94;;;8.74;100.00
9077;BME280;4574;51.072;17.174;2022-11-13T10:58:00;101545.78;;;8.78;100.00
9077;BME280;4574;51.072;17.174;2022-11-13T11:00:32;101563.84;;;8.72;100.00
9077;BME280;4574;51.072;17.174;2022-11-13T11:03:01;101556.53;;;8.75;100.00
9077;BME280;4574;51.072;17.174;2022-11-13T11:05:30;101549.97;;;8.68;100.00
9077;BME280;4574;51.072;17.174;2022-11-13T11:07:58;101552.81;;;8.65;100.00
9077;BME280;4574;51.072;17.174;2022-11-13T11:10:31;101546.72;;;8.65;100.00
9077;BME280;4574;51.072;17.174;2022-11-13T11:13:02;101549.91;;;8.70;100.00
9077;BME280;4574;51.072;17.174;2022-11-13T11:15:40;101539.84;;;8.62;100.00
9077;BME280;4574;51.072;17.174;2022-11-13T11:18:24;101536.34;;;8.62;100.00
9077;BME280;4574;51.072;17.174;2022-11-13T11:21:00;101539.53;;;8.67;100.00
9077;BME280;4574;51.072;17.174;2022-11-13T11:23:40;101539.00;;;8.62;100.00
9077;BME280;4574;51.072;17.174;2022-11-13T11:26:14;101535.41;;;8.63;100.00
9077;BME280;4574;51.072;17.174;2022-11-13T11:28:47;101517.56;;;8.54;100.00
9077;BME280;4574;51.072;17.174;2022-11-13T11:31:24;101534.25;;;8.67;100.00
9077;BME280;4574;51.072;17.174;2022-11-13T11:34:00;101534.63;;;9.37;100.00
9077;BME280;4574;51.072;17.174;2022-11-13T11:36:31;101525.44;;;9.18;100.00
9077;BME280;4574;51.072;17.174;2022-11-13T11:39:06;101515.25;;;8.99;100.00
9077;BME280;4574;51.072;17.174;2022-11-13T11:41:43;101526.47;;;9.03;100.00
9077;BME280;4574;51.072;17.174;2022-11-13T11:44:20;101523.72;;;8.92;100.00
9077;BME280;4574;51.072;17.174;2022-11-13T11:46:51;101522.78;;;8.93;100.00
9077;BME280;4574;51.072;17.174;2022-11-13T11:49:21;101524.56;;;8.92;100.00
9077;BME280;4574;51.072;17.174;2022-11-13T11:52:01;101497.84;;;8.84;100.00
9077;BME280;4574;51.072;17.174;2022-11-13T11:54:40;101502.59;;;8.92;100.00
9077;BME280;4574;51.072;17.174;2022-11-13T11:57:30;101506.81;;;8.94;100.00
9077;BME280;4574;51.072;17.174;2022-11-13T12:00:07;101495.22;;;8.97;100.00
9077;BME280;4574;51.072;17.174;2022-11-13T12:02:52;101492.56;;;8.97;100.00
9077;BME280;4574;51.072;17.174;2022-11-13T12:05:28;101496.16;;;8.96;100.00
9077;BME280;4574;51.072;17.174;2022-11-13T12:08:07;101498.47;;;8.88;100.00
9077;BME280;4574;51.072;17.174;2022-11-13T12:10:45;101488.53;;;8.91;100.00
9077;BME280;4574;51.072;17.174;2022-11-13T12:13:24;101483.16;;;8.93;100.00
9077;BME280;4574;51.072;17.174;2022-11-13T12:15:59;101484.84;;;8.94;100.00
9077;BME280;4574;51.072;17.174;2022-11-13T12:18:36;101477.97;;;8.91;100.00
9077;BME280;4574;51.072;17.174;2022-11-13T12:21:20;101478.09;;;8.90;100.00
9077;BME280;4574;51.072;17.174;2022-11-13T12:24:02;101474.94;;;8.85;100.00
9077;BME280;4574;51.072;17.174;2022-11-13T12:26:38;101479.06;;;8.89;100.00
9077;BME280;4574;51.072;17.174;2022-11-13T12:29:25;101469.31;;;8.89;100.00
9077;BME280;4574;51.072;17.174;2022-11-13T12:32:06;101477.03;;;8.92;100.00
9077;BME280;4574;51.072;17.174;2022-11-13T12:34:44;101472.59;;;8.93;100.00
9077;BME280;4574;51.072;17.174;2022-11-13T12:37:23;101463.72;;;8.94;100.00
9077;BME280;4574;51.072;17.174;2022-11-13T12:39:56;101445.88;;;8.85;100.00
9077;BME280;4574;51.072;17.174;2022-11-13T12:42:29;101457.72;;;8.92;100.00
9077;BME280;4574;51.072;17.174;2022-11-13T12:45:08;101454.53;;;8.87;100.00
9077;BME280;4574;51.072;17.174;2022-11-13T12:47:41;101458.88;;;8.88;100.00
9077;BME280;4574;51.072;17.174;2022-11-13T12:50:23;101455.19;;;8.78;100.00
9077;BME280;4574;51.072;17.174;2022-11-13T12:53:01;101444.81;;;8.75;100.00
9077;BME280;4574;51.072;17.174;2022-11-13T12:55:31;101446.19;;;8.68;100.00
9077;BME280;4574;51.072;17.174;2022-11-13T12:58:08;101443.44;;;8.69;100.00
9077;BME280;4574;51.072;17.174;2022-11-13T13:00:39;101440.72;;;8.71;100.00
9077;BME280;4574;51.072;17.174;2022-11-13T13:03:24;101428.03;;;8.63;100.00
9077;BME280;4574;51.072;17.174;2022-11-13T13:06:10;101441.13;;;8.77;100.00
9077;BME280;4574;51.072;17.174;2022-11-13T13:08:59;101436.03;;;8.74;100.00
9077;BME280;4574;51.072;17.174;2022-11-13T13:11:38;101422.75;;;8.76;100.00
9077;BME280;4574;51.072;17.174;2022-11-13T13:14:23;101409.66;;;8.74;100.00
9077;BME280;4574;51.072;17.174;2022-11-13T13:17:04;101415.38;;;8.81;100.00
9077;BME280;4574;51.072;17.174;2022-11-13T13:19:32;101411.78;;;8.82;100.00
9077;BME280;4574;51.072;17.174;2022-11-13T13:22:07;101415.16;;;8.84;100.00
9077;BME280;4574;51.072;17.174;2022-11-13T13:24:38;101394.03;;;8.71;100.00